Time;durP1;ratioP1;P1;durP2;ratioP2;P2;SDS_P1;SDS_P2;PMS_P1;PMS_P2;Temp;Humidity;BMP_temperature;BMP_pressure;BME280_temperature;BME280_humidity;BME280_pressure;Samples;Min_cycle;Max_cycle;Signal;HPM_P1;HPM_P2
2021/05/06 04:37:12;;;;;;;3.28;1.73;;;;;;;;;;6184915;23;20067;-73
2021/05/06 04:39:47;;;;;;;6.50;1.90;;;;;;;;;;6184157;23;20013;-73
2021/05/06 04:55:47;;;;;;;4.80;1.58;;;;;;;;;;6184546;23;20477;-73
2021/05/06 05:03:37;;;;;;;4.85;1.50;;;;;;;;;;6184024;23;20071;-72
2021/05/06 05:06:09;;;;;;;5.60;2.13;;;;;;;;;;6183360;23;20084;-72
2021/05/06 05:08:44;;;;;;;4.55;1.65;;;;;;;;;;6183094;23;20040;-72
2021/05/06 05:11:27;;;;;;;4.93;1.65;;;;;;;;;;6184634;23;20427;-75
2021/05/06 05:27:42;;;;;;;2.92;1.50;;;;;;;;;;6186648;23;20097;-70
2021/05/06 05:30:12;;;;;;;5.03;2.10;;;;;;;;;;6160185;23;20418;-70
2021/05/06 05:32:41;;;;;;;5.10;1.92;;;;;;;;;;6160581;23;20079;-71
2021/05/06 05:36:13;;;;;;;4.38;2.15;;;;;;;;;;6160302;23;20092;-69
2021/05/06 05:38:09;;;;;;;4.45;1.40;;;;;;;;;;6167449;23;20012;-69
2021/05/06 05:41:02;;;;;;;5.10;1.77;;;;;;;;;;6186863;23;20583;-71
2021/05/06 05:57:01;;;;;;;5.75;1.73;;;;;;;;;;6186549;23;20519;-68
2021/05/06 05:59:27;;;;;;;4.78;1.67;;;;;;;;;;6186393;23;20008;-67
2021/05/06 06:01:53;;;;;;;6.10;1.95;;;;;;;;;;6186369;23;20083;-68
2021/05/06 06:04:19;;;;;;;8.25;2.10;;;;;;;;;;6186353;23;20415;-69
2021/05/06 06:06:45;;;;;;;7.97;1.77;;;;;;;;;;6186361;23;20392;-67
2021/05/06 06:09:11;;;;;;;2.72;1.55;;;;;;;;;;6186310;23;20001;-68
2021/05/06 06:11:37;;;;;;;4.40;1.65;;;;;;;;;;6159898;23;20418;-68
2021/05/06 06:14:07;;;;;;;7.22;1.70;;;;;;;;;;6186300;23;20358;-68
2021/05/06 06:16:35;;;;;;;4.47;1.97;;;;;;;;;;6185981;23;20002;-68
2021/05/06 06:19:01;;;;;;;4.40;2.10;;;;;;;;;;6185945;23;20244;-68
2021/05/06 06:23:54;;;;;;;7.85;4.88;;;;;;;;;;6196524;23;20092;-67
2021/05/06 06:26:20;;;;;;;4.57;2.22;;;;;;;;;;6186166;23;20001;-67
2021/05/06 06:28:49;;;;;;;5.00;1.70;;;;;;;;;;6186231;23;20084;-67
2021/05/06 06:33:41;;;;;;;7.15;2.15;;;;;;;;;;6196423;23;20005;-67
2021/05/06 06:36:08;;;;;;;5.90;1.63;;;;;;;;;;6185229;23;19997;-67
2021/05/06 06:38:34;;;;;;;5.45;1.98;;;;;;;;;;6185311;23;20377;-67
2021/05/06 06:41:00;;;;;;;4.72;1.17;;;;;;;;;;6185682;23;19997;-67
2021/05/06 06:43:26;;;;;;;6.50;1.75;;;;;;;;;;6185779;23;20024;-68
2021/05/06 06:45:52;;;;;;;6.30;1.40;;;;;;;;;;6185755;23;20004;-66
2021/05/06 06:48:18;;;;;;;3.65;1.50;;;;;;;;;;6185681;23;20374;-67
2021/05/06 06:50:44;;;;;;;5.22;1.63;;;;;;;;;;6159552;23;20009;-66
2021/05/06 06:53:13;;;;;;;5.65;1.60;;;;;;;;;;6185759;23;20346;-67
2021/05/06 06:55:39;;;;;;;3.40;1.13;;;;;;;;;;6185867;23;20051;-67
2021/05/06 06:58:09;;;;;;;3.45;1.40;;;;;;;;;;6185805;23;20008;-67
2021/05/06 07:00:35;;;;;;;6.25;1.50;;;;;;;;;;6185912;23;20382;-67
2021/05/06 07:03:01;;;;;;;5.43;1.88;;;;;;;;;;6185605;23;20020;-68
2021/05/06 07:05:27;;;;;;;6.80;1.90;;;;;;;;;;6185314;23;20091;-67
2021/05/06 07:07:52;;;;;;;3.45;0.98;;;;;;;;;;6159282;23;20031;-67
2021/05/06 07:10:18;;;;;;;5.35;1.52;;;;;;;;;;6185519;23;20016;-68
2021/05/06 07:12:44;;;;;;;5.95;1.55;;;;;;;;;;6185614;23;20048;-69
2021/05/06 07:15:11;;;;;;;5.55;2.08;;;;;;;;;;6185535;23;20064;-70
2021/05/06 07:17:36;;;;;;;5.72;1.50;;;;;;;;;;6185580;23;20005;-67
2021/05/06 07:20:03;;;;;;;5.10;1.48;;;;;;;;;;6159072;23;20377;-66
2021/05/06 07:22:28;;;;;;;6.43;1.77;;;;;;;;;;6159079;23;20354;-69
2021/05/06 07:24:54;;;;;;;5.72;1.92;;;;;;;;;;6185432;23;20012;-70
2021/05/06 07:27:20;;;;;;;7.28;2.38;;;;;;;;;;6185574;23;20396;-69
2021/05/06 07:29:46;;;;;;;5.25;2.20;;;;;;;;;;6185290;23;20001;-67
2021/05/06 07:32:12;;;;;;;4.38;1.35;;;;;;;;;;6187061;23;20001;-68
2021/05/06 07:34:39;;;;;;;4.75;1.55;;;;;;;;;;6187773;23;20035;-67
2021/05/06 07:37:05;;;;;;;5.40;2.15;;;;;;;;;;6187715;23;20008;-67
2021/05/06 07:39:31;;;;;;;4.50;1.17;;;;;;;;;;6187748;23;19997;-69
2021/05/06 07:41:57;;;;;;;4.68;1.40;;;;;;;;;;6161599;23;20330;-69
2021/05/06 07:44:23;;;;;;;4.85;2.20;;;;;;;;;;6161686;23;20351;-67
2021/05/06 07:47:09;;;;;;;3.20;1.17;;;;;;;;;;6161706;23;20001;-68
2021/05/06 07:49:35;;;;;;;7.60;1.88;;;;;;;;;;6187562;23;20001;-67
2021/05/06 07:52:01;;;;;;;3.28;1.30;;;;;;;;;;6187340;23;19997;-70
2021/05/06 07:54:27;;;;;;;1.95;1.15;;;;;;;;;;6161212;23;20362;-68
2021/05/06 07:56:52;;;;;;;4.25;1.67;;;;;;;;;;6187541;23;20008;-66
2021/05/06 07:59:18;;;;;;;4.55;1.50;;;;;;;;;;6187573;23;20374;-69
2021/05/06 08:01:44;;;;;;;2.97;1.48;;;;;;;;;;6187566;23;20415;-69
2021/05/06 08:04:10;;;;;;;6.88;2.03;;;;;;;;;;6161193;23;20080;-66
2021/05/06 08:06:36;;;;;;;3.55;1.40;;;;;;;;;;6161161;23;20005;-67
2021/05/06 08:09:03;;;;;;;3.35;1.50;;;;;;;;;;6161113;23;20339;-67
2021/05/06 08:11:29;;;;;;;1.98;0.80;;;;;;;;;;6187519;23;20366;-67
2021/05/06 08:13:55;;;;;;;3.35;0.80;;;;;;;;;;6187434;23;20332;-67
2021/05/06 08:16:21;;;;;;;2.28;0.77;;;;;;;;;;6187435;23;20001;-67
2021/05/06 08:18:47;;;;;;;3.13;0.95;;;;;;;;;;6187330;23;20106;-67
2021/05/06 08:21:13;;;;;;;3.40;1.77;;;;;;;;;;6187370;23;19997;-67
2021/05/06 08:23:40;;;;;;;2.33;1.17;;;;;;;;;;6187308;23;19997;-67
2021/05/06 08:26:06;;;;;;;2.90;1.40;;;;;;;;;;6187336;23;20001;-69
2021/05/06 08:28:32;;;;;;;4.18;1.25;;;;;;;;;;6187359;23;20493;-68
2021/05/06 08:30:58;;;;;;;5.32;1.40;;;;;;;;;;6187288;23;20001;-67
2021/05/06 08:33:24;;;;;;;3.33;1.20;;;;;;;;;;6187243;23;20422;-67
2021/05/06 08:35:50;;;;;;;3.00;0.90;;;;;;;;;;6187245;23;20000;-68
2021/05/06 08:38:16;;;;;;;3.67;0.98;;;;;;;;;;6160697;23;20012;-68
2021/05/06 08:40:42;;;;;;;2.40;1.05;;;;;;;;;;6187081;23;20001;-67
2021/05/06 08:43:10;;;;;;;6.07;1.67;;;;;;;;;;6187090;23;19997;-67
2021/05/06 08:45:44;;;;;;;4.57;1.10;;;;;;;;;;6187146;23;20084;-69
2021/05/06 08:48:10;;;;;;;3.25;1.58;;;;;;;;;;6187116;23;20032;-67
2021/05/06 08:50:36;;;;;;;4.47;1.70;;;;;;;;;;6187080;23;20108;-67
2021/05/06 08:53:02;;;;;;;4.90;1.80;;;;;;;;;;6186824;23;20013;-67
2021/05/06 08:55:28;;;;;;;3.55;1.98;;;;;;;;;;6187047;23;20001;-68
2021/05/06 08:57:54;;;;;;;7.72;2.95;;;;;;;;;;6186842;23;20419;-68
2021/05/06 09:00:20;;;;;;;3.95;1.00;;;;;;;;;;6186974;23;20036;-69
2021/05/06 09:02:47;;;;;;;3.75;1.67;;;;;;;;;;6186932;23;20080;-69
2021/05/06 09:05:13;;;;;;;5.47;1.90;;;;;;;;;;6160488;23;20452;-69
2021/05/06 09:07:43;;;;;;;9.07;4.32;;;;;;;;;;6186914;23;20005;-70
2021/05/06 09:10:09;;;;;;;11.73;4.43;;;;;;;;;;6186880;23;20419;-67
2021/05/06 09:12:37;;;;;;;16.65;5.40;;;;;;;;;;6160433;23;20005;-67
2021/05/06 09:15:13;;;;;;;4.63;1.92;;;;;;;;;;6186843;23;20005;-69
2021/05/06 09:17:39;;;;;;;2.80;1.00;;;;;;;;;;6186730;23;20013;-67
2021/05/06 09:20:20;;;;;;;5.78;2.40;;;;;;;;;;6186829;23;20433;-68
2021/05/06 09:22:47;;;;;;;2.75;1.45;;;;;;;;;;6186786;23;20104;-67
2021/05/06 09:25:30;;;;;;;3.92;1.02;;;;;;;;;;6186756;23;19993;-67
2021/05/06 09:28:10;;;;;;;2.25;1.10;;;;;;;;;;6186727;23;20413;-67
2021/05/06 09:30:49;;;;;;;3.33;1.30;;;;;;;;;;6160873;23;20055;-67
2021/05/06 09:33:16;;;;;;;2.33;1.00;;;;;;;;;;6186653;23;20001;-67
2021/05/06 09:35:43;;;;;;;2.85;1.13;;;;;;;;;;6186594;23;20005;-69
2021/05/06 09:38:28;;;;;;;2.28;0.80;;;;;;;;;;6186822;23;20012;-66
2021/05/06 09:40:55;;;;;;;1.48;0.80;;;;;;;;;;6186683;23;20001;-66
2021/05/06 09:43:22;;;;;;;1.98;0.70;;;;;;;;;;6160625;23;20001;-67
2021/05/06 09:45:48;;;;;;;4.47;0.93;;;;;;;;;;6186533;23;20048;-66
2021/05/06 09:48:16;;;;;;;2.17;0.50;;;;;;;;;;6186514;23;20362;-67
2021/05/06 09:50:44;;;;;;;2.38;0.60;;;;;;;;;;6186587;23;20076;-66
2021/05/06 09:53:18;;;;;;;1.52;0.60;;;;;;;;;;6186257;23;20009;-68
2021/05/06 09:55:48;;;;;;;3.05;0.90;;;;;;;;;;6186157;23;20012;-66
2021/05/06 09:58:17;;;;;;;1.52;0.70;;;;;;;;;;6186367;23;20009;-66
2021/05/06 10:00:43;;;;;;;3.42;1.00;;;;;;;;;;6186427;23;20331;-65
2021/05/06 10:03:13;;;;;;;1.33;1.02;;;;;;;;;;6186410;23;20370;-66
2021/05/06 10:05:40;;;;;;;2.85;1.02;;;;;;;;;;6186225;23;19997;-68
2021/05/06 10:08:06;;;;;;;1.77;0.77;;;;;;;;;;6160377;23;20012;-67
2021/05/06 10:10:34;;;;;;;1.50;0.77;;;;;;;;;;6160007;23;20009;-68
2021/05/06 10:13:01;;;;;;;1.92;0.60;;;;;;;;;;6159863;23;20032;-68
2021/05/06 10:15:28;;;;;;;4.13;0.93;;;;;;;;;;6186201;23;20369;-66
2021/05/06 10:17:55;;;;;;;2.17;0.70;;;;;;;;;;6159761;23;20064;-66
2021/05/06 10:20:23;;;;;;;2.70;0.80;;;;;;;;;;6159981;23;20311;-66
2021/05/06 10:22:51;;;;;;;1.25;0.85;;;;;;;;;;6186170;23;20422;-65
2021/05/06 10:25:19;;;;;;;1.80;0.60;;;;;;;;;;6186128;23;20001;-67
2021/05/06 10:27:45;;;;;;;2.30;0.70;;;;;;;;;;6159633;23;20009;-66
2021/05/06 10:30:11;;;;;;;5.05;1.02;;;;;;;;;;6186138;23;20055;-66
2021/05/06 10:32:37;;;;;;;1.98;0.60;;;;;;;;;;6159706;23;20009;-68
2021/05/06 10:35:06;;;;;;;0.80;0.65;;;;;;;;;;6186223;23;20012;-66
2021/05/06 10:37:33;;;;;;;2.80;1.38;;;;;;;;;;6159641;23;20056;-67
2021/05/06 10:39:59;;;;;;;1.63;0.82;;;;;;;;;;6159957;23;20009;-67
2021/05/06 10:42:25;;;;;;;1.23;0.60;;;;;;;;;;6186299;23;20001;-65
2021/05/06 10:44:52;;;;;;;2.13;0.63;;;;;;;;;;6185964;23;20076;-68
2021/05/06 10:47:18;;;;;;;5.30;1.40;;;;;;;;;;6185903;23;20005;-68
2021/05/06 10:49:44;;;;;;;2.97;0.80;;;;;;;;;;6186009;23;20087;-68
2021/05/06 10:52:11;;;;;;;1.70;0.68;;;;;;;;;;6186040;23;20007;-67
2021/05/06 10:54:40;;;;;;;1.92;0.68;;;;;;;;;;6185983;23;20001;-66
2021/05/06 10:57:12;;;;;;;1.00;0.50;;;;;;;;;;6159696;23;20036;-66
2021/05/06 10:59:42;;;;;;;1.67;0.73;;;;;;;;;;6157724;23;20084;-65
2021/05/06 11:02:08;;;;;;;1.80;0.77;;;;;;;;;;6159856;23;20012;-65
2021/05/06 11:04:36;;;;;;;2.00;0.90;;;;;;;;;;6186141;23;20001;-67
2021/05/06 11:07:15;;;;;;;2.35;0.90;;;;;;;;;;6185457;23;20383;-67
2021/05/06 11:09:46;;;;;;;2.85;1.00;;;;;;;;;;6159230;23;20363;-68
2021/05/06 11:12:15;;;;;;;4.93;0.93;;;;;;;;;;6185658;23;20004;-69
2021/05/06 11:15:03;;;;;;;1.75;0.60;;;;;;;;;;6185712;23;19997;-70
2021/05/06 11:17:32;;;;;;;3.05;1.27;;;;;;;;;;6159271;23;20005;-68
2021/05/06 11:19:59;;;;;;;2.97;0.93;;;;;;;;;;6185710;23;20433;-68
2021/05/06 11:22:43;;;;;;;2.28;0.90;;;;;;;;;;6185643;23;20043;-70
2021/05/06 11:25:27;;;;;;;1.77;0.77;;;;;;;;;;6185657;23;20010;-69
2021/05/06 11:27:54;;;;;;;9.05;4.90;;;;;;;;;;6185673;23;20005;-69
2021/05/06 11:30:38;;;;;;;9.95;4.95;;;;;;;;;;6185711;23;20080;-69
2021/05/06 11:33:19;;;;;;;2.05;1.10;;;;;;;;;;6159257;23;20063;-69
2021/05/06 11:36:06;;;;;;;22.42;14.38;;;;;;;;;;6159238;23;20005;-67
2021/05/06 11:38:41;;;;;;;2.03;0.90;;;;;;;;;;6159153;23;20406;-67
2021/05/06 11:41:13;;;;;;;1.20;0.55;;;;;;;;;;6185984;23;20021;-70
2021/05/06 11:43:42;;;;;;;0.73;0.50;;;;;;;;;;6185650;23;20001;-70
2021/05/06 11:46:12;;;;;;;1.42;0.70;;;;;;;;;;6159148;23;20001;-70
2021/05/06 11:48:38;;;;;;;2.95;0.70;;;;;;;;;;6159497;23;20059;-68
2021/05/06 11:51:04;;;;;;;2.20;0.77;;;;;;;;;;6159449;23;20434;-68
2021/05/06 11:53:31;;;;;;;1.42;0.90;;;;;;;;;;6173854;23;20067;-68
2021/05/06 11:55:59;;;;;;;0.63;0.60;;;;;;;;;;6183546;23;20009;-69
2021/05/06 11:58:28;;;;;;;1.77;0.60;;;;;;;;;;6176098;23;20005;-68
2021/05/06 12:00:55;;;;;;;0.63;0.60;;;;;;;;;;6185382;23;20008;-69
2021/05/06 12:03:37;;;;;;;1.77;0.60;;;;;;;;;;6175728;23;20007;-69
2021/05/06 12:06:04;;;;;;;0.70;0.60;;;;;;;;;;6184066;23;20032;-69
2021/05/06 12:08:50;;;;;;;1.98;0.65;;;;;;;;;;6184011;23;20044;-68
2021/05/06 12:11:16;;;;;;;3.53;0.60;;;;;;;;;;6183763;23;20012;-69
2021/05/06 12:13:45;;;;;;;0.98;0.55;;;;;;;;;;6185370;23;20063;-69
2021/05/06 12:16:21;;;;;;;0.52;0.50;;;;;;;;;;6185325;23;20387;-70
2021/05/06 12:18:58;;;;;;;1.33;0.70;;;;;;;;;;6187325;23;20069;-68
2021/05/06 12:21:34;;;;;;;1.55;0.63;;;;;;;;;;6187266;23;20019;-68
2021/05/06 12:24:01;;;;;;;0.98;0.70;;;;;;;;;;6185421;23;20075;-68
2021/05/06 12:26:27;;;;;;;1.50;0.80;;;;;;;;;;6187167;23;20029;-68
2021/05/06 12:28:54;;;;;;;0.80;0.50;;;;;;;;;;6187060;23;20060;-69
2021/05/06 12:31:23;;;;;;;1.80;0.90;;;;;;;;;;6177380;23;20009;-69
2021/05/06 12:33:49;;;;;;;2.22;0.93;;;;;;;;;;6185625;23;20005;-68
2021/05/06 12:36:17;;;;;;;1.38;0.43;;;;;;;;;;6176492;23;20008;-69
2021/05/06 12:38:43;;;;;;;0.60;0.50;;;;;;;;;;6187321;23;20434;-70
2021/05/06 12:41:10;;;;;;;2.60;0.65;;;;;;;;;;6175056;23;20005;-68
2021/05/06 12:43:37;;;;;;;1.70;0.85;;;;;;;;;;6185625;23;20005;-67
2021/05/06 12:46:10;;;;;;;0.73;0.52;;;;;;;;;;6173653;23;20369;-68
2021/05/06 12:48:39;;;;;;;3.47;1.23;;;;;;;;;;6185488;23;20377;-68
2021/05/06 12:51:06;;;;;;;5.95;1.92;;;;;;;;;;6185508;23;20005;-68
2021/05/06 12:53:32;;;;;;;1.27;0.68;;;;;;;;;;6186939;23;20045;-69
2021/05/06 12:55:58;;;;;;;0.80;0.65;;;;;;;;;;6184994;23;20012;-68
2021/05/06 12:58:36;;;;;;;0.88;0.50;;;;;;;;;;6177934;23;20080;-69
2021/05/06 13:01:12;;;;;;;0.68;0.50;;;;;;;;;;6185273;23;20033;-71
2021/05/06 13:03:43;;;;;;;1.00;0.50;;;;;;;;;;6185172;23;20005;-72
2021/05/06 13:06:10;;;;;;;0.77;0.50;;;;;;;;;;6174956;23;20362;-68
2021/05/06 13:08:38;;;;;;;1.55;0.70;;;;;;;;;;6186700;23;20055;-69
2021/05/06 13:11:05;;;;;;;3.25;1.20;;;;;;;;;;6173655;23;20330;-68
2021/05/06 13:13:37;;;;;;;2.85;0.60;;;;;;;;;;6185462;23;20005;-70
2021/05/06 13:16:03;;;;;;;1.15;0.75;;;;;;;;;;6185398;23;20012;-73
2021/05/06 13:18:29;;;;;;;1.85;0.93;;;;;;;;;;6184821;23;20101;-71
2021/05/06 13:20:55;;;;;;;1.27;0.65;;;;;;;;;;6185309;23;20002;-72
2021/05/06 13:23:26;;;;;;;0.63;0.47;;;;;;;;;;6177120;23;20001;-68
2021/05/06 13:25:53;;;;;;;0.98;0.55;;;;;;;;;;6185248;23;20024;-70
2021/05/06 13:28:20;;;;;;;0.88;0.70;;;;;;;;;;6175922;23;20005;-69
2021/05/06 13:30:46;;;;;;;3.55;1.00;;;;;;;;;;6186425;23;20116;-70
2021/05/06 13:33:18;;;;;;;1.15;0.63;;;;;;;;;;6175260;23;20101;-70
2021/05/06 13:36:01;;;;;;;1.05;0.60;;;;;;;;;;6186852;23;20322;-69
2021/05/06 13:38:45;;;;;;;0.88;0.43;;;;;;;;;;6177881;23;20009;-69
2021/05/06 13:41:11;;;;;;;1.50;0.80;;;;;;;;;;6184390;23;20001;-70
2021/05/06 13:43:37;;;;;;;1.30;0.52;;;;;;;;;;6184980;23;20423;-70
2021/05/06 13:46:03;;;;;;;4.32;0.80;;;;;;;;;;6186406;23;20011;-69
2021/05/06 13:48:29;;;;;;;1.48;0.60;;;;;;;;;;6186116;23;20410;-69
2021/05/06 13:50:55;;;;;;;3.08;1.15;;;;;;;;;;6183899;23;20060;-70
2021/05/06 13:53:21;;;;;;;1.40;0.63;;;;;;;;;;6176366;23;20507;-72
2021/05/06 13:55:47;;;;;;;0.80;0.57;;;;;;;;;;6185227;23;20426;-69
2021/05/06 13:58:13;;;;;;;0.98;0.50;;;;;;;;;;6186101;23;20012;-69
2021/05/06 14:00:39;;;;;;;2.83;0.60;;;;;;;;;;6180543;23;20047;-70
2021/05/06 14:03:06;;;;;;;1.33;0.50;;;;;;;;;;6173087;23;20005;-68
2021/05/06 14:05:32;;;;;;;1.73;0.60;;;;;;;;;;6185118;23;20087;-67
2021/05/06 14:07:58;;;;;;;9.50;5.05;;;;;;;;;;6186218;23;20615;-71
2021/05/06 14:10:24;;;;;;;18.67;10.07;;;;;;;;;;6177481;23;20036;-71
2021/05/06 14:12:50;;;;;;;8.70;2.60;;;;;;;;;;6184816;23;20079;-69
2021/05/06 14:15:16;;;;;;;6.35;2.10;;;;;;;;;;6175550;23;20013;-67
2021/05/06 14:17:42;;;;;;;0.70;0.50;;;;;;;;;;6184935;23;20460;-70
2021/05/06 14:20:08;;;;;;;1.08;0.60;;;;;;;;;;6186125;23;20081;-70
2021/05/06 14:22:34;;;;;;;1.08;0.52;;;;;;;;;;6185911;23;19997;-69
2021/05/06 14:25:00;;;;;;;0.95;0.63;;;;;;;;;;6184513;23;20005;-69
2021/05/06 14:27:26;;;;;;;1.38;0.90;;;;;;;;;;6186082;23;20028;-70
2021/05/06 14:29:52;;;;;;;1.67;0.77;;;;;;;;;;6182940;23;20009;-70
2021/05/06 14:32:18;;;;;;;3.05;1.00;;;;;;;;;;6186204;23;20331;-70
2021/05/06 14:34:44;;;;;;;0.95;0.68;;;;;;;;;;6186104;23;20009;-68
2021/05/06 14:37:09;;;;;;;2.58;0.93;;;;;;;;;;6185895;23;20012;-67
2021/05/06 14:39:36;;;;;;;1.27;1.13;;;;;;;;;;6185910;23;20051;-68
2021/05/06 14:42:02;;;;;;;1.55;0.50;;;;;;;;;;6186058;23;19997;-69
2021/05/06 14:44:28;;;;;;;1.80;0.68;;;;;;;;;;6185892;23;20407;-68
2021/05/06 14:46:56;;;;;;;1.83;1.00;;;;;;;;;;6185896;23;20028;-67
2021/05/06 14:49:22;;;;;;;1.15;0.80;;;;;;;;;;6185884;23;20005;-68
2021/05/06 14:51:48;;;;;;;5.93;2.40;;;;;;;;;;6185767;23;20335;-71
2021/05/06 14:54:14;;;;;;;3.35;1.50;;;;;;;;;;6184712;23;20017;-72
2021/05/06 14:56:40;;;;;;;3.45;1.35;;;;;;;;;;6180157;23;20009;-67
2021/05/06 14:59:06;;;;;;;2.95;0.88;;;;;;;;;;6185703;23;20044;-67
2021/05/06 15:01:33;;;;;;;1.98;0.90;;;;;;;;;;6178377;23;20040;-68
2021/05/06 15:03:59;;;;;;;2.10;1.00;;;;;;;;;;6183527;23;20009;-69
2021/05/06 15:06:25;;;;;;;2.88;0.98;;;;;;;;;;6183923;23;20032;-70
2021/05/06 15:08:51;;;;;;;1.73;0.75;;;;;;;;;;6185186;23;20052;-68
2021/05/06 15:11:17;;;;;;;2.88;1.50;;;;;;;;;;6174294;23;20325;-69
2021/05/06 15:13:43;;;;;;;4.20;1.42;;;;;;;;;;6182540;23;20009;-69
2021/05/06 15:16:09;;;;;;;2.92;1.60;;;;;;;;;;6172334;23;20016;-70
2021/05/06 15:18:39;;;;;;;2.33;1.10;;;;;;;;;;6184286;23;20055;-71
2021/05/06 15:21:05;;;;;;;3.60;1.00;;;;;;;;;;6170722;23;20001;-70
2021/05/06 15:23:31;;;;;;;1.60;0.90;;;;;;;;;;6183506;23;20452;-70
2021/05/06 15:26:00;;;;;;;1.38;0.80;;;;;;;;;;6185898;23;20040;-70
2021/05/06 15:28:26;;;;;;;4.90;1.27;;;;;;;;;;6178240;23;20009;-73
2021/05/06 15:31:02;;;;;;;2.28;1.02;;;;;;;;;;6184391;23;20330;-71
2021/05/06 15:33:31;;;;;;;2.90;0.80;;;;;;;;;;6185969;23;20012;-71
2021/05/06 15:35:58;;;;;;;2.33;0.90;;;;;;;;;;6183579;23;20012;-71
2021/05/06 15:38:30;;;;;;;3.40;1.67;;;;;;;;;;6185561;23;20005;-69
2021/05/06 15:40:59;;;;;;;3.80;1.65;;;;;;;;;;6184248;23;20039;-69
2021/05/06 15:43:28;;;;;;;5.28;1.60;;;;;;;;;;6184526;23;19997;-71
2021/05/06 15:45:56;;;;;;;2.78;1.42;;;;;;;;;;6181099;23;20370;-71
2021/05/06 15:48:25;;;;;;;3.83;1.30;;;;;;;;;;6183849;23;20009;-72
2021/05/06 15:50:51;;;;;;;2.30;0.93;;;;;;;;;;6181131;23;20063;-74
2021/05/06 15:53:23;;;;;;;1.80;1.20;;;;;;;;;;6175788;23;20463;-72
2021/05/06 15:55:49;;;;;;;1.58;0.90;;;;;;;;;;6185066;23;20430;-72
2021/05/06 15:58:16;;;;;;;3.22;1.10;;;;;;;;;;6186519;23;20354;-71
2021/05/06 16:00:42;;;;;;;2.60;0.80;;;;;;;;;;6179656;23;20506;-70
2021/05/06 16:03:13;;;;;;;1.90;0.80;;;;;;;;;;6173145;23;20055;-71
2021/05/06 16:05:48;;;;;;;1.92;1.00;;;;;;;;;;6185874;23;19997;-72
2021/05/06 16:08:14;;;;;;;2.35;1.13;;;;;;;;;;6175465;23;20012;-71
2021/05/06 16:10:40;;;;;;;1.35;0.82;;;;;;;;;;6186049;23;20005;-71
2021/05/06 16:13:06;;;;;;;2.05;1.15;;;;;;;;;;6187381;23;20012;-72
2021/05/06 16:15:32;;;;;;;1.25;0.80;;;;;;;;;;6180235;23;20327;-71
2021/05/06 16:17:58;;;;;;;1.90;1.00;;;;;;;;;;6187343;23;20005;-69
2021/05/06 16:20:40;;;;;;;2.70;1.80;;;;;;;;;;6178225;23;20005;-71
2021/05/06 16:23:10;;;;;;;10.10;5.70;;;;;;;;;;6187757;23;19997;-71
2021/05/06 16:25:43;;;;;;;1.92;1.30;;;;;;;;;;6180476;23;20008;-71
2021/05/06 16:28:15;;;;;;;1.48;0.70;;;;;;;;;;6175318;23;20047;-71
2021/05/06 16:31:02;;;;;;;2.25;0.95;;;;;;;;;;6185250;23;20331;-71
2021/05/06 16:33:54;;;;;;;1.27;0.68;;;;;;;;;;6182940;23;20040;-71
2021/05/06 16:41:57;;;;;;;9.68;8.63;;;;;;;;;;6197400;23;20012;-71
2021/05/06 16:44:30;;;;;;;6.72;4.93;;;;;;;;;;6178040;23;20009;-70
2021/05/06 16:46:56;;;;;;;1.08;0.90;;;;;;;;;;6186977;23;20048;-70
2021/05/06 16:49:29;;;;;;;2.63;1.00;;;;;;;;;;6177496;23;20009;-69
2021/05/06 16:51:55;;;;;;;3.42;1.48;;;;;;;;;;6186714;23;20063;-70
2021/05/06 16:54:22;;;;;;;5.60;1.70;;;;;;;;;;6186891;23;20001;-69
2021/05/06 16:56:50;;;;;;;5.00;2.15;;;;;;;;;;6187392;23;20001;-70
2021/05/06 16:59:16;;;;;;;2.85;1.50;;;;;;;;;;6186801;23;20005;-70
2021/05/06 17:01:43;;;;;;;3.22;1.83;;;;;;;;;;6186938;23;20342;-70
2021/05/06 17:04:09;;;;;;;4.40;1.80;;;;;;;;;;6174290;23;20001;-70
2021/05/06 17:06:36;;;;;;;5.88;1.88;;;;;;;;;;6186906;23;19997;-69
2021/05/06 17:09:12;;;;;;;3.65;1.73;;;;;;;;;;6173564;23;20450;-70
2021/05/06 17:11:39;;;;;;;4.55;2.03;;;;;;;;;;6186844;23;20000;-67
2021/05/06 17:14:05;;;;;;;5.13;2.10;;;;;;;;;;6174255;23;20140;-69
2021/05/06 17:16:31;;;;;;;4.45;2.47;;;;;;;;;;6186815;23;20104;-70
2021/05/06 17:19:00;;;;;;;11.07;4.45;;;;;;;;;;6186613;23;20415;-71
2021/05/06 17:21:27;;;;;;;11.68;5.60;;;;;;;;;;6177968;23;20001;-68
2021/05/06 17:23:53;;;;;;;14.73;7.20;;;;;;;;;;6187120;23;20001;-71
2021/05/06 17:26:19;;;;;;;18.08;9.88;;;;;;;;;;6186857;23;20005;-71
2021/05/06 17:28:45;;;;;;;17.85;14.18;;;;;;;;;;6186638;23;20016;-69
2021/05/06 17:31:12;;;;;;;16.75;8.98;;;;;;;;;;6186562;23;20005;-71
2021/05/06 17:33:38;;;;;;;14.65;8.52;;;;;;;;;;6186647;23;20009;-70
2021/05/06 17:36:04;;;;;;;13.73;9.10;;;;;;;;;;6173352;23;20067;-70
2021/05/06 17:38:30;;;;;;;20.60;9.70;;;;;;;;;;6184984;23;20092;-69
2021/05/06 17:40:56;;;;;;;20.73;12.02;;;;;;;;;;6186521;23;20438;-68
2021/05/06 17:43:22;;;;;;;19.23;11.30;;;;;;;;;;6186497;23;20406;-70
2021/05/06 17:45:52;;;;;;;22.63;9.75;;;;;;;;;;6182605;23;20369;-71
2021/05/06 17:48:18;;;;;;;13.18;6.80;;;;;;;;;;6176144;23;20059;-71
2021/05/06 17:50:44;;;;;;;14.10;7.25;;;;;;;;;;6185215;23;20008;-70
2021/05/06 17:53:12;;;;;;;12.90;6.68;;;;;;;;;;6186237;23;20122;-70
2021/05/06 17:55:38;;;;;;;13.75;5.80;;;;;;;;;;6186336;23;20331;-69
2021/05/06 17:58:04;;;;;;;8.77;4.68;;;;;;;;;;6186249;23;20005;-69
2021/05/06 18:00:30;;;;;;;14.52;4.90;;;;;;;;;;6178600;23;20089;-68
2021/05/06 18:02:56;;;;;;;8.20;4.00;;;;;;;;;;6184936;23;20055;-70
2021/05/06 18:05:23;;;;;;;5.78;3.08;;;;;;;;;;6176872;23;20005;-69
2021/05/06 18:07:49;;;;;;;6.35;3.20;;;;;;;;;;6186330;23;20001;-70
2021/05/06 18:10:26;;;;;;;7.88;3.35;;;;;;;;;;6186152;23;20104;-69
2021/05/06 18:12:52;;;;;;;7.03;3.30;;;;;;;;;;6183158;23;20011;-69
2021/05/06 18:15:19;;;;;;;9.45;3.70;;;;;;;;;;6169775;23;20425;-70
2021/05/06 18:17:45;;;;;;;10.60;4.07;;;;;;;;;;6182592;23;20005;-68
2021/05/06 18:20:13;;;;;;;10.82;4.82;;;;;;;;;;6184733;23;20019;-70
2021/05/06 18:22:43;;;;;;;13.18;4.82;;;;;;;;;;6179761;23;20005;-70
2021/05/06 18:25:09;;;;;;;14.60;6.28;;;;;;;;;;6173543;23;20008;-70
2021/05/06 18:27:35;;;;;;;16.52;7.57;;;;;;;;;;6185754;23;20009;-70
2021/05/06 18:30:07;;;;;;;20.60;7.80;;;;;;;;;;6185548;23;20012;-70
2021/05/06 18:32:33;;;;;;;15.20;6.78;;;;;;;;;;6186162;23;20047;-71
2021/05/06 18:34:59;;;;;;;16.50;7.70;;;;;;;;;;6186239;23;20001;-72
2021/05/06 18:37:26;;;;;;;29.13;12.90;;;;;;;;;;6185690;23;20084;-72
2021/05/06 18:39:52;;;;;;;23.10;10.70;;;;;;;;;;6182192;23;20036;-71
2021/05/06 18:42:18;;;;;;;22.58;11.25;;;;;;;;;;6185931;23;20440;-71
2021/05/06 18:44:44;;;;;;;26.95;12.23;;;;;;;;;;6179794;23;20052;-73
2021/05/06 18:47:09;;;;;;;22.92;8.98;;;;;;;;;;6185101;23;20001;-71
2021/05/06 18:49:35;;;;;;;21.55;10.75;;;;;;;;;;6185295;23;20008;-70
2021/05/06 18:52:01;;;;;;;17.95;7.93;;;;;;;;;;6185181;23;20008;-71
2021/05/06 18:54:28;;;;;;;13.10;6.72;;;;;;;;;;6185499;23;19997;-71
2021/05/06 18:56:57;;;;;;;14.68;6.40;;;;;;;;;;6185099;23;20005;-71
2021/05/06 18:59:25;;;;;;;16.27;7.05;;;;;;;;;;6185471;23;20005;-73
2021/05/06 19:02:02;;;;;;;24.48;10.75;;;;;;;;;;6180129;23;20366;-74
2021/05/06 19:04:37;;;;;;;26.23;13.32;;;;;;;;;;6174969;23;20434;-73
2021/05/06 19:10:53;;;;;;;21.13;11.30;;;;;;;;;;6184902;23;20378;-70
2021/05/06 19:13:30;;;;;;;25.55;12.10;;;;;;;;;;6142934;23;20012;-72
2021/05/06 19:16:03;;;;;;;45.17;15.75;;;;;;;;;;6183200;23;20025;-72
2021/05/06 19:21:54;;;;;;;18.02;7.55;;;;;;;;;;6152333;23;20005;-70
2021/05/06 19:24:23;;;;;;;14.00;6.15;;;;;;;;;;6127146;23;20057;-71
2021/05/06 19:26:56;;;;;;;11.95;6.25;;;;;;;;;;6183269;23;20327;-69
2021/05/06 19:29:22;;;;;;;22.35;8.63;;;;;;;;;;6176069;23;20012;-69
2021/05/06 19:31:48;;;;;;;21.38;8.73;;;;;;;;;;6185283;23;20087;-69
2021/05/06 19:34:16;;;;;;;30.10;12.32;;;;;;;;;;6185324;23;20001;-70
2021/05/06 19:36:42;;;;;;;52.58;20.92;;;;;;;;;;6185127;23;20135;-70
2021/05/06 19:39:08;;;;;;;47.10;16.52;;;;;;;;;;6185019;23;20005;-71
2021/05/06 19:41:34;;;;;;;66.13;23.88;;;;;;;;;;6185267;23;19997;-71
2021/05/06 19:44:03;;;;;;;25.10;9.38;;;;;;;;;;6185287;23;20355;-70
2021/05/06 19:48:56;;;;;;;53.25;21.50;;;;;;;;;;6195718;23;20430;-69
2021/05/06 19:51:24;;;;;;;27.40;12.77;;;;;;;;;;6185249;23;20072;-69
2021/05/06 19:53:52;;;;;;;35.53;15.23;;;;;;;;;;6185120;23;20017;-69
2021/05/06 19:56:19;;;;;;;27.75;10.80;;;;;;;;;;6185440;23;20008;-69
2021/05/06 19:58:45;;;;;;;18.63;7.60;;;;;;;;;;6184994;23;20001;-69
2021/05/06 20:01:13;;;;;;;11.65;4.55;;;;;;;;;;6185907;23;20032;-69
2021/05/06 20:03:39;;;;;;;12.38;4.10;;;;;;;;;;6185511;23;19997;-69
2021/05/06 20:06:08;;;;;;;13.15;4.30;;;;;;;;;;6185463;23;20008;-69
2021/05/06 20:08:34;;;;;;;5.85;2.75;;;;;;;;;;6185515;23;20599;-70
2021/05/06 20:11:01;;;;;;;6.68;2.92;;;;;;;;;;6185396;23;20005;-70
2021/05/06 20:13:27;;;;;;;5.55;2.78;;;;;;;;;;6185857;23;20012;-69
2021/05/06 20:15:53;;;;;;;10.48;3.22;;;;;;;;;;6185309;23;20005;-69
2021/05/06 20:18:19;;;;;;;2.53;1.50;;;;;;;;;;6185462;23;20008;-69
2021/05/06 20:21:05;;;;;;;3.40;1.33;;;;;;;;;;6180820;23;20005;-69
2021/05/06 20:23:32;;;;;;;2.03;1.33;;;;;;;;;;6185400;23;20001;-69
2021/05/06 20:25:58;;;;;;;1.63;0.95;;;;;;;;;;6185451;23;20427;-69
2021/05/06 20:28:24;;;;;;;2.40;1.10;;;;;;;;;;6185367;23;20001;-69
2021/05/06 20:30:50;;;;;;;3.95;1.20;;;;;;;;;;6185346;23;20096;-69